createdAt,value
2019-03-29T00:00:51.437Z,6.90
2019-03-29T00:03:19.862Z,6.90
2019-03-29T00:05:48.290Z,6.90
2019-03-29T00:08:16.690Z,6.90
2019-03-29T00:10:45.414Z,6.80
2019-03-29T00:13:14.774Z,6.80
2019-03-29T00:15:43.342Z,6.80
2019-03-29T00:18:12.194Z,6.70
2019-03-29T00:20:40.698Z,6.70
2019-03-29T00:23:09.120Z,6.60
2019-03-29T00:25:37.580Z,6.50
2019-03-29T00:28:06.026Z,6.60
2019-03-29T00:30:34.442Z,6.50
2019-03-29T00:33:02.852Z,6.50
2019-03-29T00:35:31.614Z,6.40
2019-03-29T00:38:00.037Z,6.40
2019-03-29T00:40:28.467Z,6.40
2019-03-29T00:42:56.921Z,6.40
2019-03-29T00:45:25.337Z,6.40
2019-03-29T00:47:53.759Z,6.30
2019-03-29T00:50:22.190Z,6.30
2019-03-29T00:52:50.617Z,6.30
2019-03-29T00:55:19.039Z,6.20
2019-03-29T00:57:47.478Z,6.20
2019-03-29T01:00:16.222Z,6.20
2019-03-29T01:02:44.935Z,6.20
2019-03-29T01:05:13.634Z,6.10
2019-03-29T01:07:42.045Z,6.10
2019-03-29T01:10:11.014Z,6.00
2019-03-29T01:12:39.440Z,6.00
2019-03-29T01:15:09.384Z,5.90
2019-03-29T01:17:38.103Z,6.00
2019-03-29T01:20:07.651Z,5.90
2019-03-29T01:22:36.133Z,5.90
2019-03-29T01:25:07.988Z,5.90
2019-03-29T01:27:36.602Z,5.90
2019-03-29T01:30:06.647Z,5.90
2019-03-29T01:32:35.075Z,5.80
2019-03-29T01:35:05.422Z,5.80
2019-03-29T01:37:33.851Z,5.80
2019-03-29T01:40:02.262Z,5.80
2019-03-29T01:42:30.674Z,5.70
2019-03-29T01:44:59.095Z,5.70
2019-03-29T01:47:27.574Z,5.70
2019-03-29T01:49:55.989Z,5.70
2019-03-29T01:52:24.426Z,5.70
2019-03-29T01:54:52.843Z,5.70
2019-03-29T01:57:21.242Z,5.70
2019-03-29T01:59:49.674Z,5.70
2019-03-29T02:02:18.094Z,5.70
2019-03-29T02:04:46.507Z,5.70
2019-03-29T02:07:14.926Z,5.60
2019-03-29T02:09:43.335Z,5.60
2019-03-29T02:12:11.770Z,5.50
2019-03-29T02:14:40.193Z,5.40
2019-03-29T02:17:08.690Z,5.40
2019-03-29T02:19:37.124Z,5.40
2019-03-29T02:22:05.553Z,5.30
2019-03-29T02:24:33.955Z,5.30
2019-03-29T02:27:02.405Z,5.30
2019-03-29T02:29:30.801Z,5.30
2019-03-29T02:31:59.208Z,5.30
2019-03-29T02:34:27.631Z,5.30
2019-03-29T02:36:56.108Z,5.30
2019-03-29T02:39:24.544Z,5.30
2019-03-29T02:41:53.030Z,5.30
2019-03-29T02:44:21.436Z,5.20
2019-03-29T02:46:50.009Z,5.20
2019-03-29T02:49:18.421Z,5.10
2019-03-29T02:51:46.889Z,5.10
2019-03-29T02:54:15.314Z,5.20
2019-03-29T02:56:43.732Z,5.20
2019-03-29T02:59:12.184Z,5.20
2019-03-29T03:01:40.591Z,5.10
2019-03-29T03:04:09.006Z,5.10
2019-03-29T03:06:37.404Z,5.10
2019-03-29T03:09:13.596Z,5.10
2019-03-29T03:11:37.592Z,5.10
2019-03-29T03:14:06.063Z,5.10
2019-03-29T03:16:34.486Z,5.10
2019-03-29T03:19:02.894Z,5.10
2019-03-29T03:21:31.301Z,5.10
2019-03-29T03:23:59.760Z,5.10
2019-03-29T03:26:28.276Z,5.10
2019-03-29T03:28:56.669Z,5.10
2019-03-29T03:31:25.065Z,5.10
2019-03-29T03:33:53.486Z,5.10
2019-03-29T03:36:21.964Z,5.00
2019-03-29T03:38:50.358Z,5.00
2019-03-29T03:41:18.841Z,5.00
2019-03-29T03:43:47.263Z,5.00
2019-03-29T03:46:15.846Z,5.00
2019-03-29T03:48:44.251Z,4.90
2019-03-29T03:51:12.914Z,4.90
2019-03-29T03:53:41.535Z,4.90
2019-03-29T03:56:10.495Z,4.90
2019-03-29T03:58:39.944Z,4.80
2019-03-29T04:01:08.385Z,4.80
2019-03-29T04:03:36.794Z,4.80
2019-03-29T04:06:05.420Z,4.80
2019-03-29T04:08:33.850Z,4.80
2019-03-29T04:11:02.320Z,4.80
2019-03-29T04:13:30.837Z,4.80
2019-03-29T04:15:59.257Z,4.80
2019-03-29T04:18:27.657Z,4.80
2019-03-29T04:20:56.068Z,4.70
2019-03-29T04:23:24.487Z,4.70
2019-03-29T04:25:52.897Z,4.80
2019-03-29T04:28:21.302Z,4.80
2019-03-29T04:30:49.727Z,4.80
2019-03-29T04:33:18.207Z,4.80
2019-03-29T04:35:46.613Z,4.70
2019-03-29T04:38:15.046Z,4.70
2019-03-29T04:40:43.537Z,4.70
2019-03-29T04:43:11.926Z,4.70
2019-03-29T04:45:40.381Z,4.70
2019-03-29T04:48:08.815Z,4.70
2019-03-29T04:50:37.313Z,4.70
2019-03-29T04:53:05.748Z,4.70
2019-03-29T04:55:34.150Z,4.60
2019-03-29T04:58:02.582Z,4.60
2019-03-29T05:00:31.019Z,4.60
2019-03-29T05:02:59.416Z,4.60
2019-03-29T05:05:27.821Z,4.60
2019-03-29T05:07:56.563Z,4.60
2019-03-29T05:10:25.061Z,4.60
2019-03-29T05:12:53.473Z,4.60
2019-03-29T05:15:21.865Z,4.50
2019-03-29T05:17:50.310Z,4.50
2019-03-29T05:20:18.724Z,4.50
2019-03-29T05:22:47.131Z,4.60
2019-03-29T05:25:15.549Z,4.50
2019-03-29T05:27:43.949Z,4.60
2019-03-29T05:30:12.597Z,4.60
2019-03-29T05:32:41.017Z,4.50
2019-03-29T05:35:09.426Z,4.50
2019-03-29T05:37:37.862Z,4.50
2019-03-29T05:40:06.820Z,4.40
2019-03-29T05:42:35.217Z,4.50
2019-03-29T05:45:05.792Z,4.60
2019-03-29T05:47:34.207Z,4.60
2019-03-29T05:50:02.785Z,4.60
2019-03-29T05:52:31.211Z,4.60
2019-03-29T05:54:59.638Z,4.60
2019-03-29T05:57:28.045Z,4.70
2019-03-29T05:59:56.445Z,4.70
2019-03-29T06:02:24.930Z,4.80
2019-03-29T06:04:53.378Z,4.80
2019-03-29T06:07:21.786Z,4.90
2019-03-29T06:09:50.239Z,4.90
2019-03-29T06:12:18.633Z,5.00
2019-03-29T06:14:47.041Z,5.00
2019-03-29T06:17:15.476Z,5.00
2019-03-29T06:19:43.958Z,5.10
2019-03-29T06:22:12.456Z,5.20
2019-03-29T06:24:40.886Z,5.30
2019-03-29T06:27:09.297Z,5.30
2019-03-29T06:29:37.843Z,5.40
2019-03-29T06:32:06.269Z,5.40
2019-03-29T06:34:34.704Z,5.50
2019-03-29T06:37:03.544Z,5.60
2019-03-29T06:39:32.222Z,5.70
2019-03-29T06:42:00.624Z,5.80
2019-03-29T06:44:29.055Z,5.80
2019-03-29T06:46:57.458Z,5.90
2019-03-29T06:49:25.861Z,6.00
2019-03-29T06:51:54.308Z,6.10
2019-03-29T06:54:22.701Z,6.20
2019-03-29T06:56:51.122Z,6.40
2019-03-29T06:59:19.555Z,6.50
2019-03-29T07:01:47.957Z,6.60
2019-03-29T07:04:17.862Z,6.70
2019-03-29T07:06:46.272Z,6.80
2019-03-29T07:09:14.716Z,6.90
2019-03-29T07:11:43.122Z,7.00
2019-03-29T07:14:11.523Z,7.10
2019-03-29T07:16:39.945Z,7.20
2019-03-29T07:19:08.372Z,7.20
2019-03-29T07:21:36.795Z,7.30
2019-03-29T07:24:05.198Z,7.40
2019-03-29T07:26:33.593Z,7.50
2019-03-29T07:29:02.039Z,7.60
2019-03-29T07:31:30.436Z,7.70
2019-03-29T07:33:58.833Z,7.80
2019-03-29T07:36:27.277Z,7.80
2019-03-29T07:38:55.665Z,8.00
2019-03-29T07:41:31.867Z,8.10
2019-03-29T07:43:54.234Z,8.10
2019-03-29T07:46:22.634Z,8.30
2019-03-29T07:48:51.036Z,8.40
2019-03-29T07:51:19.517Z,8.50
2019-03-29T07:53:47.913Z,8.70
2019-03-29T07:56:16.341Z,8.80
2019-03-29T07:58:44.762Z,9.00
2019-03-29T08:01:13.164Z,9.10
2019-03-29T08:03:41.593Z,9.20
2019-03-29T08:06:09.997Z,9.40
2019-03-29T08:08:38.390Z,9.50
2019-03-29T08:11:06.810Z,9.70
2019-03-29T08:13:35.238Z,9.90
2019-03-29T08:16:06.550Z,10.00
2019-03-29T08:18:33.797Z,10.10
2019-03-29T08:21:02.203Z,10.20
2019-03-29T08:23:30.612Z,10.30
2019-03-29T08:25:59.185Z,10.50
2019-03-29T08:28:27.662Z,10.60
2019-03-29T08:30:56.065Z,10.70
2019-03-29T08:33:24.510Z,10.90
2019-03-29T08:35:52.910Z,10.90
2019-03-29T08:38:21.349Z,11.00
2019-03-29T08:40:49.796Z,11.20
2019-03-29T08:43:18.196Z,11.30
2019-03-29T08:45:46.607Z,11.50
2019-03-29T08:48:15.040Z,11.60
2019-03-29T08:50:44.814Z,11.80
2019-03-29T08:53:13.301Z,11.90
2019-03-29T08:55:45.982Z,12.00
2019-03-29T08:58:12.386Z,12.10
2019-03-29T09:00:40.802Z,12.20
2019-03-29T09:03:09.248Z,12.30
2019-03-29T09:05:39.249Z,12.40
2019-03-29T09:08:07.977Z,12.50
2019-03-29T09:10:36.406Z,12.60
2019-03-29T09:13:04.895Z,12.80
2019-03-29T09:15:33.496Z,12.90
2019-03-29T09:18:01.931Z,13.00
2019-03-29T09:20:30.338Z,13.10
2019-03-29T09:22:58.740Z,13.30
2019-03-29T09:25:27.171Z,13.40
2019-03-29T09:27:55.575Z,13.60
2019-03-29T09:30:24.005Z,13.80
2019-03-29T09:32:52.428Z,13.90
2019-03-29T09:35:20.876Z,14.10
2019-03-29T09:37:49.289Z,14.20
2019-03-29T09:40:17.975Z,14.40
2019-03-29T09:42:46.418Z,14.50
2019-03-29T09:45:14.827Z,14.70
2019-03-29T09:47:43.257Z,14.90
2019-03-29T09:50:13.274Z,15.00
2019-03-29T09:52:41.677Z,15.10
2019-03-29T09:55:10.282Z,15.20
2019-03-29T09:57:38.687Z,15.40
2019-03-29T10:00:19.287Z,15.60
2019-03-29T10:02:39.343Z,15.80
2019-03-29T10:05:07.761Z,15.90
2019-03-29T10:07:36.161Z,16.00
2019-03-29T10:10:06.119Z,16.10
2019-03-29T10:12:43.230Z,16.20
2019-03-29T10:15:06.701Z,16.40
2019-03-29T10:17:35.109Z,16.50
2019-03-29T10:20:05.644Z,16.60
2019-03-29T10:22:34.045Z,16.70
2019-03-29T10:25:02.813Z,16.90
2019-03-29T10:27:31.354Z,17.00
2019-03-29T10:30:01.285Z,17.10
2019-03-29T10:32:29.735Z,17.20
2019-03-29T10:34:58.136Z,17.20
2019-03-29T10:37:26.604Z,17.40
2019-03-29T10:39:55.030Z,17.40
2019-03-29T10:42:23.426Z,17.50
2019-03-29T10:44:51.834Z,17.60
2019-03-29T10:47:20.345Z,17.70
2019-03-29T10:49:48.756Z,18.00
2019-03-29T10:52:17.153Z,18.00
2019-03-29T10:54:45.586Z,18.20
2019-03-29T10:57:13.995Z,18.20
2019-03-29T10:59:42.393Z,18.20
2019-03-29T11:02:10.810Z,18.30
2019-03-29T11:04:39.206Z,18.50
2019-03-29T11:07:07.674Z,18.60
2019-03-29T11:09:37.219Z,18.70
2019-03-29T11:12:05.785Z,18.50
2019-03-29T11:14:34.205Z,18.50
2019-03-29T11:17:02.637Z,18.60
2019-03-29T11:19:31.024Z,18.80
2019-03-29T11:21:59.431Z,19.10
2019-03-29T11:24:27.844Z,19.20
2019-03-29T11:26:56.285Z,19.20
2019-03-29T11:29:24.677Z,19.10
2019-03-29T11:31:53.075Z,19.10
2019-03-29T11:34:21.508Z,19.10
2019-03-29T11:36:52.565Z,19.30
2019-03-29T11:39:20.038Z,19.30
2019-03-29T11:41:48.465Z,19.50
2019-03-29T11:44:16.869Z,19.70
2019-03-29T11:46:45.273Z,20.00
2019-03-29T11:49:13.704Z,20.40
2019-03-29T11:51:42.107Z,20.60
2019-03-29T11:54:10.507Z,20.90
2019-03-29T11:56:38.925Z,20.90
2019-03-29T11:59:07.493Z,20.90
2019-03-29T12:01:35.897Z,21.10
2019-03-29T12:04:04.501Z,21.20
2019-03-29T12:06:32.904Z,21.30
2019-03-29T12:09:01.300Z,21.50
2019-03-29T12:11:29.730Z,21.70
2019-03-29T12:13:59.161Z,21.80
2019-03-29T12:16:27.569Z,21.80
2019-03-29T12:18:55.984Z,21.90
2019-03-29T12:21:24.410Z,22.10
2019-03-29T12:23:52.821Z,22.20
2019-03-29T12:26:21.217Z,22.20
2019-03-29T12:28:49.794Z,22.40
2019-03-29T12:31:18.248Z,22.70
2019-03-29T12:33:46.707Z,23.20
2019-03-29T12:36:15.133Z,23.60
2019-03-29T12:38:43.594Z,24.00
2019-03-29T12:41:12.115Z,24.50
2019-03-29T12:43:54.661Z,24.90
2019-03-29T12:46:10.640Z,25.30
2019-03-29T12:48:39.068Z,25.70
2019-03-29T12:51:07.476Z,26.10
2019-03-29T12:53:35.882Z,26.50
2019-03-29T12:56:04.336Z,26.90
2019-03-29T12:58:32.709Z,27.20
2019-03-29T13:01:01.129Z,27.30
2019-03-29T13:03:29.613Z,27.70
2019-03-29T13:05:58.212Z,28.00
2019-03-29T13:08:26.606Z,28.50
2019-03-29T13:10:55.033Z,28.70
2019-03-29T13:13:23.456Z,28.80
2019-03-29T13:15:51.877Z,28.90
2019-03-29T13:18:20.361Z,28.80
2019-03-29T13:20:48.901Z,29.10
2019-03-29T13:23:17.495Z,29.20
2019-03-29T13:25:46.072Z,29.50
2019-03-29T13:28:14.463Z,30.00
2019-03-29T13:30:42.868Z,29.80
2019-03-29T13:33:11.323Z,29.80
2019-03-29T13:35:39.745Z,29.90
2019-03-29T13:38:08.179Z,30.30
2019-03-29T13:40:36.936Z,30.50
2019-03-29T13:43:05.491Z,31.20
2019-03-29T13:45:34.128Z,31.70
2019-03-29T13:48:02.539Z,32.30
2019-03-29T13:50:30.973Z,32.50
2019-03-29T13:52:59.375Z,32.30
2019-03-29T13:55:27.778Z,32.20
2019-03-29T13:57:56.209Z,32.00
2019-03-29T14:00:24.600Z,32.10
2019-03-29T14:02:53.310Z,32.30
2019-03-29T14:05:21.740Z,32.80
2019-03-29T14:07:50.169Z,32.40
2019-03-29T14:10:18.617Z,32.50
2019-03-29T14:12:47.045Z,32.30
2019-03-29T14:15:15.685Z,32.50
2019-03-29T14:17:44.077Z,32.50
2019-03-29T14:20:13.058Z,33.20
2019-03-29T14:22:41.462Z,33.90
2019-03-29T14:25:10.305Z,34.70
2019-03-29T14:27:38.788Z,35.20
2019-03-29T14:30:08.437Z,35.40
2019-03-29T14:32:36.825Z,35.60
2019-03-29T14:35:07.705Z,35.50
2019-03-29T14:37:36.099Z,36.10
2019-03-29T14:40:06.733Z,35.80
2019-03-29T14:42:35.355Z,35.50
2019-03-29T14:45:05.970Z,34.80
2019-03-29T14:47:41.290Z,34.60
2019-03-29T14:50:07.615Z,34.40
2019-03-29T14:52:36.272Z,34.10
2019-03-29T14:55:06.308Z,33.80
2019-03-29T14:57:34.942Z,33.10
2019-03-29T15:00:05.244Z,32.90
2019-03-29T15:02:33.706Z,32.40
2019-03-29T15:05:02.172Z,32.20
2019-03-29T15:07:30.544Z,32.10
2019-03-29T15:09:59.272Z,32.10
2019-03-29T15:12:27.707Z,31.90
2019-03-29T15:15:05.985Z,31.70
2019-03-29T15:17:26.268Z,31.80
2019-03-29T15:19:54.694Z,31.80
2019-03-29T15:22:23.088Z,31.10
2019-03-29T15:24:51.517Z,31.00
2019-03-29T15:27:19.965Z,30.80
2019-03-29T15:29:48.368Z,30.60
2019-03-29T15:32:16.791Z,30.40
2019-03-29T15:34:45.201Z,30.00
2019-03-29T15:37:13.631Z,29.90
2019-03-29T15:39:42.029Z,29.80
2019-03-29T15:42:10.428Z,30.60
2019-03-29T15:44:38.856Z,30.50
2019-03-29T15:47:07.313Z,30.30
2019-03-29T15:49:35.726Z,30.10
2019-03-29T15:52:04.157Z,29.70
2019-03-29T15:54:32.578Z,29.70
2019-03-29T15:57:00.981Z,29.50
2019-03-29T15:59:29.377Z,29.20
2019-03-29T16:01:57.805Z,28.50
2019-03-29T16:04:26.408Z,28.10
2019-03-29T16:06:54.954Z,28.10
2019-03-29T16:09:23.359Z,28.10
2019-03-29T16:11:51.799Z,27.80
2019-03-29T16:14:20.203Z,27.50
2019-03-29T16:16:48.673Z,27.20
2019-03-29T16:19:17.298Z,26.70
2019-03-29T16:21:45.700Z,26.40
2019-03-29T16:24:14.126Z,26.30
2019-03-29T16:26:42.559Z,26.00
2019-03-29T16:29:10.951Z,25.60
2019-03-29T16:31:39.345Z,25.30
2019-03-29T16:34:07.782Z,25.10
2019-03-29T16:36:36.180Z,25.00
2019-03-29T16:39:06.888Z,24.90
2019-03-29T16:41:35.597Z,24.90
2019-03-29T16:44:04.679Z,24.60
2019-03-29T16:46:33.078Z,24.50
2019-03-29T16:49:01.578Z,24.20
2019-03-29T16:51:29.977Z,23.70
2019-03-29T16:53:58.376Z,23.30
2019-03-29T16:56:26.808Z,23.20
2019-03-29T16:58:55.205Z,22.80
2019-03-29T17:01:23.640Z,22.40
2019-03-29T17:03:52.038Z,22.00
2019-03-29T17:06:20.511Z,21.60
2019-03-29T17:08:49.161Z,21.30
2019-03-29T17:11:17.553Z,21.10
2019-03-29T17:13:45.954Z,20.90
2019-03-29T17:16:14.401Z,20.60
2019-03-29T17:18:42.803Z,20.50
2019-03-29T17:21:11.256Z,20.40
2019-03-29T17:23:39.733Z,20.40
2019-03-29T17:26:08.421Z,20.20
2019-03-29T17:28:36.815Z,20.00
2019-03-29T17:31:06.851Z,19.70
2019-03-29T17:33:35.294Z,19.50
2019-03-29T17:36:03.689Z,19.30
2019-03-29T17:38:32.093Z,19.20
2019-03-29T17:41:00.527Z,19.00
2019-03-29T17:43:28.928Z,18.90
2019-03-29T17:45:57.323Z,18.70
2019-03-29T17:48:25.761Z,18.60
2019-03-29T17:50:54.162Z,18.40
2019-03-29T17:53:22.570Z,18.30
2019-03-29T17:55:51.018Z,18.10
2019-03-29T17:58:19.409Z,17.90
2019-03-29T18:00:47.860Z,17.80
2019-03-29T18:03:16.547Z,17.70
2019-03-29T18:05:44.953Z,17.50
2019-03-29T18:08:13.348Z,17.40
2019-03-29T18:10:41.798Z,17.30
2019-03-29T18:13:10.196Z,17.20
2019-03-29T18:15:38.650Z,17.10
2019-03-29T18:18:07.667Z,17.00
2019-03-29T18:20:36.072Z,16.90
2019-03-29T18:23:04.542Z,16.80
2019-03-29T18:25:32.973Z,16.70
2019-03-29T18:28:01.441Z,16.60
2019-03-29T18:30:40.956Z,16.50
2019-03-29T18:33:09.347Z,16.50
2019-03-29T18:35:38.279Z,16.40
2019-03-29T18:38:07.701Z,16.30
2019-03-29T18:40:36.098Z,16.20
2019-03-29T18:43:04.760Z,16.10
2019-03-29T18:45:33.485Z,16.00
2019-03-29T18:48:01.882Z,15.90
2019-03-29T18:50:30.323Z,15.80
2019-03-29T18:52:58.716Z,15.70
2019-03-29T18:55:27.148Z,15.60
2019-03-29T18:57:55.631Z,15.60
2019-03-29T19:00:31.935Z,15.50
2019-03-29T19:03:00.807Z,15.40
2019-03-29T19:05:29.513Z,15.40
2019-03-29T19:07:57.934Z,15.30
2019-03-29T19:10:26.346Z,15.20
2019-03-29T19:12:54.842Z,15.20
2019-03-29T19:15:23.214Z,15.10
2019-03-29T19:17:51.612Z,15.00
2019-03-29T19:20:27.267Z,15.00
2019-03-29T19:22:50.278Z,14.80
2019-03-29T19:25:18.685Z,14.80
2019-03-29T19:27:47.097Z,14.70
2019-03-29T19:30:15.869Z,14.60
2019-03-29T19:32:44.266Z,14.60
2019-03-29T19:35:12.665Z,14.50
2019-03-29T19:37:41.092Z,14.50
2019-03-29T19:40:10.243Z,14.40
2019-03-29T19:42:38.670Z,14.30
2019-03-29T19:45:09.125Z,14.20
2019-03-29T19:47:37.529Z,14.10
2019-03-29T19:50:06.511Z,14.00
2019-03-29T19:52:34.922Z,14.00
2019-03-29T19:55:03.998Z,13.90
2019-03-29T19:57:33.297Z,13.90
2019-03-29T20:00:01.684Z,13.80
2019-03-29T20:02:30.374Z,13.70
2019-03-29T20:04:58.806Z,13.70
2019-03-29T20:07:27.197Z,13.70
2019-03-29T20:09:55.609Z,13.60
2019-03-29T20:12:25.283Z,13.50
2019-03-29T20:14:53.830Z,13.40
2019-03-29T20:17:27.576Z,13.30
2019-03-29T20:19:52.388Z,13.20
2019-03-29T20:22:20.825Z,13.20
2019-03-29T20:24:49.217Z,13.10
2019-03-29T20:27:17.617Z,13.00
2019-03-29T20:29:46.045Z,12.90
2019-03-29T20:32:14.449Z,12.80
2019-03-29T20:34:42.881Z,12.70
2019-03-29T20:37:11.281Z,12.60
2019-03-29T20:39:39.682Z,12.60
2019-03-29T20:42:08.117Z,12.50
2019-03-29T20:44:36.524Z,12.50
2019-03-29T20:47:05.000Z,12.40
2019-03-29T20:49:33.424Z,12.40
2019-03-29T20:52:01.832Z,12.30
2019-03-29T20:54:30.221Z,12.30
2019-03-29T20:56:58.656Z,12.20
2019-03-29T20:59:27.049Z,12.10
2019-03-29T21:01:55.445Z,12.00
2019-03-29T21:04:23.880Z,12.00
2019-03-29T21:06:52.289Z,12.00
2019-03-29T21:09:20.708Z,11.90
2019-03-29T21:11:49.415Z,11.80
2019-03-29T21:14:17.961Z,11.80
2019-03-29T21:16:46.354Z,11.70
2019-03-29T21:19:14.790Z,11.60
2019-03-29T21:21:43.191Z,11.60
2019-03-29T21:24:11.591Z,11.50
2019-03-29T21:26:40.033Z,11.40
2019-03-29T21:29:08.431Z,11.40
2019-03-29T21:31:36.858Z,11.30
2019-03-29T21:34:05.258Z,11.20
2019-03-29T21:36:33.662Z,11.10
2019-03-29T21:39:02.087Z,11.10
2019-03-29T21:41:30.485Z,11.00
2019-03-29T21:43:58.894Z,11.00
2019-03-29T21:46:27.318Z,10.90
2019-03-29T21:48:55.713Z,10.90
2019-03-29T21:51:24.111Z,10.90
2019-03-29T21:53:52.532Z,10.80
2019-03-29T21:56:21.914Z,10.80
2019-03-29T21:58:50.317Z,10.70
2019-03-29T22:01:18.709Z,10.70
2019-03-29T22:03:47.501Z,10.60
2019-03-29T22:06:16.029Z,10.60
2019-03-29T22:08:44.425Z,10.60
2019-03-29T22:11:12.849Z,10.60
2019-03-29T22:13:41.257Z,10.50
2019-03-29T22:16:09.659Z,10.50
2019-03-29T22:18:38.433Z,10.40
2019-03-29T22:21:06.962Z,10.30
2019-03-29T22:23:35.358Z,10.30
2019-03-29T22:26:03.783Z,10.30
2019-03-29T22:28:32.175Z,10.20
2019-03-29T22:31:00.593Z,10.10
2019-03-29T22:33:29.018Z,10.10
2019-03-29T22:35:57.494Z,10.10
2019-03-29T22:38:25.909Z,10.00
2019-03-29T22:40:54.346Z,10.00
2019-03-29T22:43:22.759Z,10.00
2019-03-29T22:45:51.197Z,9.90
2019-03-29T22:48:19.628Z,9.80
2019-03-29T22:50:48.025Z,9.80
2019-03-29T22:53:16.423Z,9.70
2019-03-29T22:55:44.847Z,9.70
2019-03-29T22:58:13.242Z,9.60
2019-03-29T23:00:45.212Z,9.60
2019-03-29T23:03:13.845Z,9.50
2019-03-29T23:05:42.238Z,9.50
2019-03-29T23:08:10.817Z,9.40
2019-03-29T23:10:39.213Z,9.30
2019-03-29T23:13:07.609Z,9.30
2019-03-29T23:15:36.034Z,9.30
2019-03-29T23:18:04.529Z,9.20
2019-03-29T23:20:32.928Z,9.20
2019-03-29T23:23:01.348Z,9.20
2019-03-29T23:25:29.783Z,9.20
2019-03-29T23:27:58.173Z,9.20
2019-03-29T23:30:26.566Z,9.20
2019-03-29T23:32:54.989Z,9.10
2019-03-29T23:35:23.388Z,9.10
2019-03-29T23:37:51.779Z,9.10
2019-03-29T23:40:20.205Z,9.10
2019-03-29T23:42:48.613Z,9.00
2019-03-29T23:45:17.033Z,9.00
2019-03-29T23:47:45.420Z,9.00
2019-03-29T23:50:13.985Z,9.00
2019-03-29T23:52:42.433Z,8.90
2019-03-29T23:55:10.911Z,8.90
2019-03-29T23:57:39.349Z,8.90
